Time;durP1;ratioP1;P1;durP2;ratioP2;P2;SDS_P1;SDS_P2;PMS_P1;PMS_P2;Temp;Humidity;BMP_temperature;BMP_pressure;BME280_temperature;BME280_humidity;BME280_pressure;Samples;Min_cycle;Max_cycle;Signal;HPM_P1;HPM_P2
2022/09/11 00:00:40;;;;;;;3.95;1.58;;;26.20;99.90;;;;;;4156662;28;20053;-72
2022/09/11 00:02:45;;;;;;;3.20;1.60;;;26.20;99.90;;;;;;4156628;28;20068;-72
2022/09/11 00:04:52;;;;;;;1.75;1.38;;;26.30;99.90;;;;;;4141797;28;20479;-72
2022/09/11 00:06:59;;;;;;;4.93;1.50;;;26.30;99.90;;;;;;4142185;28;20044;-72
2022/09/11 00:09:05;;;;;;;3.58;1.27;;;26.20;99.90;;;;;;4157487;28;20871;-72
2022/09/11 00:11:17;;;;;;;5.05;1.52;;;26.20;99.90;;;;;;4156904;28;20552;-73
2022/09/11 00:13:24;;;;;;;2.55;1.25;;;26.30;99.90;;;;;;4141239;28;20054;-71
2022/09/11 00:15:28;;;;;;;2.30;1.05;;;26.30;99.90;;;;;;4142876;28;20076;-73
2022/09/11 00:17:34;;;;;;;3.50;1.40;;;26.20;99.90;;;;;;4143493;28;20528;-72
2022/09/11 00:19:41;;;;;;;3.90;1.10;;;26.30;99.90;;;;;;4143388;28;20141;-72
2022/09/11 00:21:49;;;;;;;2.67;1.00;;;26.30;99.90;;;;;;4157826;28;20072;-69
2022/09/11 00:23:55;;;;;;;1.75;1.00;;;26.30;99.90;;;;;;4141754;28;20084;-70
2022/09/11 00:26:03;;;;;;;4.88;1.00;;;26.30;99.90;;;;;;4142861;28;20053;-70
2022/09/11 00:28:28;;;;;;;1.75;0.90;;;26.40;99.90;;;;;;4143003;28;20045;-68
2022/09/11 00:30:35;;;;;;;0.80;0.60;;;26.30;99.90;;;;;;4173887;28;20107;-65
2022/09/11 00:32:52;;;;;;;4.13;0.80;;;26.40;99.90;;;;;;4141340;28;20044;-66
2022/09/11 00:34:56;;;;;;;2.55;1.00;;;26.40;99.90;;;;;;4141763;28;20065;-65
2022/09/11 00:37:05;;;;;;;1.98;1.10;;;26.40;99.90;;;;;;4141362;28;20124;-63
2022/09/11 00:39:27;;;;;;;2.03;0.77;;;26.40;99.90;;;;;;4143121;28;20061;-63
2022/09/11 00:41:37;;;;;;;1.30;0.95;;;26.40;99.90;;;;;;4157624;28;20054;-64
2022/09/11 00:44:06;;;;;;;2.05;0.98;;;26.40;99.90;;;;;;4154570;28;20087;-64
2022/09/11 00:46:13;;;;;;;1.58;0.65;;;26.50;99.90;;;;;;4173962;28;20139;-64
2022/09/11 00:48:19;;;;;;;1.65;1.00;;;26.50;99.90;;;;;;4142769;28;20053;-64
2022/09/11 00:50:28;;;;;;;2.33;1.30;;;26.50;99.90;;;;;;4152787;28;20100;-65
2022/09/11 00:52:36;;;;;;;1.85;1.27;;;26.50;99.90;;;;;;4141611;28;20042;-65
2022/09/11 00:54:45;;;;;;;4.53;1.42;;;26.50;99.90;;;;;;4141383;28;20053;-66
2022/09/11 00:56:52;;;;;;;2.92;1.63;;;26.60;99.90;;;;;;4139105;28;20045;-67
2022/09/11 00:58:57;;;;;;;2.85;1.70;;;26.60;99.90;;;;;;4157801;28;20147;-66
2022/09/11 01:01:02;;;;;;;2.08;1.25;;;26.60;99.90;;;;;;4141981;28;20050;-65
2022/09/11 01:03:09;;;;;;;2.75;1.10;;;26.60;99.90;;;;;;4160228;28;20053;-65
2022/09/11 01:05:15;;;;;;;1.48;0.80;;;26.60;99.90;;;;;;4159986;28;20521;-65
2022/09/11 01:07:20;;;;;;;3.25;1.00;;;26.70;99.90;;;;;;4145752;28;20050;-65
2022/09/11 01:09:26;;;;;;;3.90;0.98;;;26.70;99.90;;;;;;4116678;28;20469;-65
2022/09/11 01:11:46;;;;;;;1.08;0.80;;;26.70;99.90;;;;;;4145273;28;20048;-65
2022/09/11 01:14:07;;;;;;;1.58;1.10;;;26.70;99.90;;;;;;4143866;28;20781;-65
2022/09/11 01:16:36;;;;;;;2.88;1.30;;;26.70;99.90;;;;;;4142824;28;20058;-65
2022/09/11 01:18:52;;;;;;;3.17;1.13;;;26.70;99.90;;;;;;4142455;28;20059;-65
2022/09/11 01:21:21;;;;;;;1.98;1.20;;;26.80;99.90;;;;;;4158386;28;20160;-65
2022/09/11 01:23:56;;;;;;;2.47;1.15;;;26.90;99.90;;;;;;4141249;28;20049;-66
2022/09/11 01:26:31;;;;;;;1.77;0.98;;;26.90;99.90;;;;;;4145255;28;20096;-65
2022/09/11 01:28:56;;;;;;;4.88;1.15;;;26.80;99.90;;;;;;4143468;28;20046;-65
2022/09/11 01:31:03;;;;;;;1.42;1.00;;;26.80;99.90;;;;;;4141759;28;20074;-66
2022/09/11 01:33:29;;;;;;;2.60;1.10;;;26.90;99.90;;;;;;4159866;28;20064;-65
2022/09/11 01:35:43;;;;;;;2.25;0.90;;;26.90;99.90;;;;;;4159496;28;20049;-65
2022/09/11 01:37:54;;;;;;;2.15;1.23;;;26.90;99.90;;;;;;4145087;28;20049;-64
2022/09/11 01:40:02;;;;;;;2.08;1.25;;;26.90;99.90;;;;;;4143504;28;20097;-64
2022/09/11 01:42:16;;;;;;;1.55;1.00;;;26.90;99.90;;;;;;4094357;28;20047;-64
2022/09/11 01:44:27;;;;;;;2.33;1.10;;;26.90;99.90;;;;;;4159472;28;20103;-65
2022/09/11 01:46:36;;;;;;;2.90;1.23;;;26.90;99.90;;;;;;4173476;28;20045;-64
2022/09/11 01:48:45;;;;;;;3.10;1.20;;;26.90;99.90;;;;;;4175084;28;20045;-65
2022/09/11 01:50:52;;;;;;;1.40;1.00;;;26.80;99.90;;;;;;4172665;28;20679;-64
2022/09/11 01:53:00;;;;;;;1.55;1.00;;;26.80;99.90;;;;;;4159914;28;20048;-64
2022/09/11 01:55:15;;;;;;;1.80;1.10;;;26.80;99.90;;;;;;4109955;28;20042;-64
2022/09/11 01:57:41;;;;;;;3.85;1.17;;;26.80;99.90;;;;;;4158275;28;20049;-64
2022/09/11 01:59:52;;;;;;;1.70;0.95;;;26.80;99.90;;;;;;4159223;28;20092;-65
2022/09/11 02:02:03;;;;;;;1.33;0.95;;;26.90;99.90;;;;;;4141742;28;20081;-65
2022/09/11 02:04:32;;;;;;;3.75;1.33;;;26.80;99.90;;;;;;4176029;28;20172;-64
2022/09/11 02:07:06;;;;;;;1.70;1.15;;;26.90;99.90;;;;;;4142733;28;20060;-64
2022/09/11 02:09:13;;;;;;;1.85;1.10;;;26.80;99.90;;;;;;4173810;28;20094;-63
2022/09/11 02:11:18;;;;;;;1.20;1.10;;;26.80;99.90;;;;;;4175361;28;20095;-64
2022/09/11 02:13:37;;;;;;;1.45;1.10;;;26.70;99.90;;;;;;4159055;28;20060;-64
2022/09/11 02:15:48;;;;;;;2.63;1.17;;;26.70;99.90;;;;;;4142844;28;20046;-64
2022/09/11 02:17:58;;;;;;;2.08;1.30;;;26.80;99.90;;;;;;4173885;28;20064;-64
2022/09/11 02:20:04;;;;;;;2.53;1.38;;;26.90;99.90;;;;;;4142792;28;20053;-64
2022/09/11 02:22:10;;;;;;;2.35;1.30;;;26.90;99.90;;;;;;4144131;28;20133;-63
2022/09/11 02:24:15;;;;;;;1.80;1.10;;;27.00;99.90;;;;;;4159169;28;20049;-63
2022/09/11 02:26:23;;;;;;;3.15;1.20;;;27.10;99.90;;;;;;4143721;28;20523;-64
2022/09/11 02:28:28;;;;;;;4.03;1.55;;;27.10;99.90;;;;;;4141426;28;20046;-64
2022/09/11 02:30:36;;;;;;;1.52;1.33;;;27.10;99.90;;;;;;4139400;28;20038;-64
2022/09/11 02:32:46;;;;;;;2.67;1.30;;;27.20;99.90;;;;;;4158054;28;20060;-64
2022/09/11 02:34:54;;;;;;;2.00;1.20;;;27.20;99.90;;;;;;4143450;28;20871;-64
2022/09/11 02:37:38;;;;;;;1.20;0.75;;;27.20;99.90;;;;;;4172786;28;20049;-64
2022/09/11 02:40:19;;;;;;;0.80;0.80;;;27.20;99.90;;;;;;4175269;28;20048;-64
2022/09/11 02:42:38;;;;;;;1.40;0.98;;;27.30;99.90;;;;;;4142451;28;20053;-64
2022/09/11 02:44:57;;;;;;;1.20;0.98;;;27.30;99.90;;;;;;4158103;28;20060;-64
2022/09/11 02:47:34;;;;;;;1.55;1.10;;;27.20;99.90;;;;;;4174799;28;20132;-64
2022/09/11 02:49:58;;;;;;;1.52;1.02;;;27.20;99.90;;;;;;4106359;28;20122;-64
2022/09/11 02:52:27;;;;;;;1.58;1.00;;;27.20;99.90;;;;;;4140330;28;20692;-64
2022/09/11 02:55:02;;;;;;;1.13;0.90;;;27.30;99.90;;;;;;4158064;28;20132;-65
2022/09/11 02:57:32;;;;;;;1.73;0.90;;;27.30;99.90;;;;;;4143783;28;20560;-64
2022/09/11 02:59:41;;;;;;;1.17;0.80;;;27.20;99.90;;;;;;4172666;28;20055;-64
2022/09/11 03:01:48;;;;;;;2.88;0.90;;;27.10;99.90;;;;;;4141471;28;20072;-64
2022/09/11 03:03:59;;;;;;;1.15;0.80;;;27.10;99.90;;;;;;4175471;28;20048;-64
2022/09/11 03:06:04;;;;;;;3.42;1.00;;;27.10;99.90;;;;;;4142356;28;20413;-64
2022/09/11 03:08:09;;;;;;;1.45;0.90;;;27.10;99.90;;;;;;4143085;28;20133;-64
2022/09/11 03:10:18;;;;;;;1.23;0.90;;;27.20;99.90;;;;;;4172083;28;20044;-64
2022/09/11 03:12:22;;;;;;;1.38;0.95;;;27.20;99.90;;;;;;4141128;28;20057;-64
2022/09/11 03:14:27;;;;;;;1.90;0.90;;;27.20;99.90;;;;;;4157496;28;20068;-64
2022/09/11 03:16:35;;;;;;;2.15;0.90;;;27.30;99.90;;;;;;4142970;28;20049;-64
2022/09/11 03:18:40;;;;;;;1.83;1.00;;;27.30;99.90;;;;;;4141879;28;20144;-64
2022/09/11 03:20:46;;;;;;;3.65;1.10;;;27.30;99.90;;;;;;4144957;28;20061;-64
2022/09/11 03:22:51;;;;;;;2.15;1.05;;;27.40;99.90;;;;;;4144001;28;20451;-64
2022/09/11 03:24:55;;;;;;;2.20;1.10;;;27.40;99.90;;;;;;4174849;28;20550;-64
2022/09/11 03:27:01;;;;;;;2.88;1.15;;;27.50;99.90;;;;;;4175442;28;20052;-64
2022/09/11 03:29:11;;;;;;;2.00;1.20;;;27.60;99.90;;;;;;4143902;28;20125;-63
2022/09/11 03:31:19;;;;;;;3.38;1.10;;;27.60;99.90;;;;;;4159169;28;20059;-64
2022/09/11 03:33:24;;;;;;;0.98;0.88;;;27.40;99.90;;;;;;4143181;28;20069;-64
2022/09/11 03:48:58;;;;;;;1.77;1.38;;;27.20;99.90;;;;;;4141799;28;20045;-64
2022/09/11 03:51:17;;;;;;;1.42;1.00;;;27.50;99.90;;;;;;4121410;28;20082;-64
2022/09/11 03:53:21;;;;;;;1.83;1.00;;;27.40;99.90;;;;;;4123349;28;20054;-64
2022/09/11 03:55:26;;;;;;;1.75;1.20;;;27.30;99.90;;;;;;4123397;28;20046;-64
2022/09/11 03:57:35;;;;;;;1.10;0.90;;;27.20;99.90;;;;;;4123578;28;20045;-64
2022/09/11 03:59:41;;;;;;;2.40;1.10;;;27.20;99.90;;;;;;4114911;28;20062;-63
2022/09/11 04:01:49;;;;;;;1.58;1.17;;;27.00;99.90;;;;;;4123384;28;20137;-63
2022/09/11 04:03:55;;;;;;;2.72;1.13;;;27.10;99.90;;;;;;4102110;28;20110;-64
2022/09/11 04:06:07;;;;;;;1.67;1.30;;;27.20;99.90;;;;;;4105623;28;20131;-64
2022/09/11 04:08:12;;;;;;;2.03;1.33;;;27.30;99.90;;;;;;4107401;28;20043;-63
2022/09/11 04:10:21;;;;;;;1.92;1.17;;;27.20;99.90;;;;;;4107290;28;20051;-63
2022/09/11 04:12:28;;;;;;;1.65;1.25;;;27.30;99.90;;;;;;4108170;28;20047;-63
2022/09/11 04:14:32;;;;;;;1.27;1.10;;;27.40;99.90;;;;;;4109791;28;20046;-63
2022/09/11 04:16:41;;;;;;;2.60;1.25;;;27.40;99.90;;;;;;4110389;28;20701;-64
2022/09/11 04:18:48;;;;;;;1.30;1.13;;;27.40;99.90;;;;;;4109910;28;20089;-63
2022/09/11 04:20:56;;;;;;;2.05;1.30;;;27.40;99.90;;;;;;4110777;28;20043;-64
2022/09/11 04:23:01;;;;;;;2.20;1.45;;;27.40;99.90;;;;;;4111207;28;20046;-63
2022/09/11 04:25:09;;;;;;;2.95;1.70;;;27.50;99.90;;;;;;4111080;28;20086;-63
2022/09/11 04:27:14;;;;;;;3.72;1.42;;;27.80;99.90;;;;;;4115069;28;20121;-63
2022/09/11 04:29:23;;;;;;;2.60;1.27;;;27.80;99.90;;;;;;4161151;28;20050;-63
2022/09/11 04:31:31;;;;;;;1.85;1.20;;;27.90;99.90;;;;;;4144741;28;20070;-64
2022/09/11 04:33:36;;;;;;;1.88;1.00;;;28.10;99.90;;;;;;4143372;28;20397;-63
2022/09/11 04:35:43;;;;;;;1.38;1.10;;;27.90;99.90;;;;;;4144202;28;20038;-64
2022/09/11 04:37:50;;;;;;;1.52;0.80;;;28.00;99.90;;;;;;4159969;28;20075;-64
2022/09/11 04:39:55;;;;;;;1.98;1.00;;;28.10;99.90;;;;;;4157878;28;20061;-64
2022/09/11 04:42:02;;;;;;;1.45;1.10;;;28.20;99.90;;;;;;4143594;28;20137;-64
2022/09/11 04:44:09;;;;;;;1.67;0.85;;;28.10;99.90;;;;;;4158758;28;20045;-64
2022/09/11 04:46:17;;;;;;;2.33;0.90;;;28.00;99.90;;;;;;4157302;28;20475;-64
2022/09/11 04:48:24;;;;;;;1.60;0.98;;;28.00;99.90;;;;;;4159299;28;20626;-63
2022/09/11 04:50:31;;;;;;;2.58;1.05;;;28.20;99.90;;;;;;4159733;28;20069;-63
2022/09/11 04:52:47;;;;;;;1.00;0.90;;;28.20;99.90;;;;;;4159550;28;20715;-63
2022/09/11 04:54:58;;;;;;;1.63;1.10;;;28.20;99.90;;;;;;4110615;28;20765;-64
2022/09/11 04:57:09;;;;;;;1.45;0.95;;;28.40;99.90;;;;;;4160558;28;20053;-64
2022/09/11 04:59:16;;;;;;;2.97;1.10;;;28.40;99.90;;;;;;4160105;28;20084;-63
2022/09/11 05:01:31;;;;;;;0.98;0.88;;;28.40;99.90;;;;;;4142669;28;20432;-63
2022/09/11 05:03:38;;;;;;;1.63;1.10;;;28.50;99.90;;;;;;4145251;28;20050;-63
2022/09/11 05:05:42;;;;;;;4.97;1.30;;;28.70;99.90;;;;;;4144090;28;20036;-63
2022/09/11 05:07:50;;;;;;;1.15;0.90;;;28.70;99.90;;;;;;4145231;28;20049;-63
2022/09/11 05:09:54;;;;;;;1.42;0.90;;;28.80;99.90;;;;;;4177240;28;20938;-63
2022/09/11 05:12:00;;;;;;;1.55;1.15;;;28.80;99.90;;;;;;4144797;28;20049;-64
2022/09/11 05:14:10;;;;;;;1.50;1.33;;;28.80;99.90;;;;;;4160715;28;20496;-63
2022/09/11 05:16:19;;;;;;;2.05;1.30;;;28.70;99.90;;;;;;4143279;28;20050;-64
2022/09/11 05:18:23;;;;;;;1.77;1.30;;;28.70;99.90;;;;;;4143003;28;20111;-64
2022/09/11 05:20:28;;;;;;;1.58;0.88;;;28.90;99.90;;;;;;4143614;28;20673;-61
2022/09/11 05:22:32;;;;;;;1.98;1.10;;;28.70;99.90;;;;;;4144168;28;20046;-64
2022/09/11 05:24:38;;;;;;;1.30;0.85;;;28.80;99.90;;;;;;4142729;28;20049;-64
2022/09/11 05:26:44;;;;;;;1.60;0.98;;;28.80;99.90;;;;;;4144971;28;20461;-64
2022/09/11 05:28:57;;;;;;;1.85;1.00;;;29.00;99.90;;;;;;4177005;28;20041;-64
2022/09/11 05:31:01;;;;;;;1.25;1.00;;;28.80;99.90;;;;;;4175850;28;20060;-64
2022/09/11 05:33:08;;;;;;;3.30;1.20;;;29.00;99.90;;;;;;4109213;28;20043;-64
2022/09/11 05:35:15;;;;;;;2.38;0.90;;;29.20;99.90;;;;;;4142770;28;20385;-64
2022/09/11 05:37:26;;;;;;;1.58;0.90;;;29.50;99.90;;;;;;4144566;28;20052;-65
2022/09/11 05:39:31;;;;;;;1.25;1.00;;;29.60;99.90;;;;;;4158951;28;20049;-64
2022/09/11 05:41:40;;;;;;;2.45;1.10;;;29.80;99.90;;;;;;4159047;28;20403;-64
2022/09/11 05:43:44;;;;;;;1.52;1.10;;;29.70;99.90;;;;;;4158793;28;20476;-64
2022/09/11 05:45:56;;;;;;;1.15;0.80;;;29.80;99.90;;;;;;4143402;28;20074;-64
2022/09/11 05:48:05;;;;;;;1.45;1.00;;;29.70;99.90;;;;;;4159293;28;20731;-64
2022/09/11 05:50:30;;;;;;;1.23;1.00;;;29.80;99.90;;;;;;4141642;28;20100;-64
2022/09/11 05:52:35;;;;;;;2.78;1.08;;;29.70;99.90;;;;;;4176549;28;20110;-65
2022/09/11 05:54:45;;;;;;;1.27;0.95;;;29.70;99.90;;;;;;4159994;28;20045;-65
2022/09/11 05:56:53;;;;;;;1.33;1.02;;;29.70;99.90;;;;;;4176169;28;20049;-63
2022/09/11 05:59:01;;;;;;;2.30;0.95;;;29.70;99.90;;;;;;4158343;28;20045;-64
2022/09/11 06:01:17;;;;;;;3.92;1.23;;;29.70;99.90;;;;;;4176186;28;20075;-63
2022/09/11 06:03:36;;;;;;;1.52;1.20;;;29.70;99.90;;;;;;4140087;28;20041;-64
2022/09/11 06:05:44;;;;;;;4.65;0.90;;;29.90;99.90;;;;;;4131672;28;20109;-64
2022/09/11 06:07:51;;;;;;;3.28;1.20;;;29.90;99.90;;;;;;4136387;28;20046;-64
2022/09/11 06:09:56;;;;;;;1.88;1.05;;;29.80;99.90;;;;;;4141961;28;20065;-63
2022/09/11 06:12:08;;;;;;;2.20;1.17;;;29.90;99.90;;;;;;4142426;28;20092;-64
2022/09/11 06:14:14;;;;;;;1.85;1.10;;;30.00;99.90;;;;;;4146320;28;20528;-64
2022/09/11 06:16:21;;;;;;;1.90;1.00;;;29.80;99.90;;;;;;4141418;28;20081;-64
2022/09/11 06:18:35;;;;;;;2.85;1.25;;;29.80;99.90;;;;;;4157586;28;20400;-64
2022/09/11 06:20:42;;;;;;;1.92;1.00;;;29.80;99.90;;;;;;4163151;28;20109;-65
2022/09/11 06:22:53;;;;;;;2.30;1.25;;;29.90;99.90;;;;;;4169708;28;20435;-64
2022/09/11 06:25:01;;;;;;;1.23;1.13;;;29.90;99.90;;;;;;4105705;28;20101;-64
2022/09/11 06:27:07;;;;;;;1.48;1.10;;;29.90;99.90;;;;;;4156268;28;20038;-64
2022/09/11 06:29:16;;;;;;;1.88;1.20;;;30.10;99.90;;;;;;4174089;28;20131;-64
2022/09/11 06:31:26;;;;;;;1.45;1.30;;;30.20;99.90;;;;;;4141638;28;20056;-64
2022/09/11 06:33:37;;;;;;;2.83;1.23;;;30.30;99.90;;;;;;4141763;28;20057;-64
2022/09/11 06:35:41;;;;;;;1.25;1.15;;;30.40;99.90;;;;;;4141941;28;20112;-65
2022/09/11 06:37:49;;;;;;;1.75;1.55;;;30.50;99.90;;;;;;4159301;28;20076;-65
2022/09/11 06:39:56;;;;;;;1.75;1.30;;;30.60;99.90;;;;;;4157929;28;20068;-65
2022/09/11 06:42:03;;;;;;;3.42;1.50;;;30.60;99.90;;;;;;4158538;28;20064;-64
2022/09/11 06:44:11;;;;;;;2.40;1.60;;;30.60;99.90;;;;;;4159107;28;20049;-66
2022/09/11 06:46:18;;;;;;;2.20;1.40;;;30.70;99.90;;;;;;4158854;28;20693;-65
2022/09/11 06:48:25;;;;;;;2.38;1.60;;;30.80;99.90;;;;;;4158923;28;20045;-66
2022/09/11 06:50:39;;;;;;;3.35;1.48;;;30.90;99.90;;;;;;4158946;28;20065;-66
2022/09/11 06:52:50;;;;;;;3.80;1.58;;;30.80;99.90;;;;;;4173635;28;20049;-66
2022/09/11 06:54:59;;;;;;;3.95;1.50;;;30.60;99.90;;;;;;4174233;28;20057;-66
2022/09/11 06:57:05;;;;;;;2.00;1.60;;;30.60;99.90;;;;;;4140736;28;20421;-65
2022/09/11 06:59:13;;;;;;;2.33;1.60;;;30.60;99.90;;;;;;4141859;28;20054;-65
2022/09/11 07:01:22;;;;;;;1.95;1.40;;;30.60;99.90;;;;;;4157973;28;20070;-64
2022/09/11 07:03:31;;;;;;;1.88;1.35;;;30.60;99.90;;;;;;4158069;28;20428;-64
2022/09/11 07:05:47;;;;;;;3.78;1.50;;;30.60;99.90;;;;;;4174190;28;20112;-64
2022/09/11 07:07:52;;;;;;;3.15;1.50;;;30.60;99.90;;;;;;4174831;28;20053;-64
2022/09/11 07:10:03;;;;;;;1.80;1.55;;;30.60;99.90;;;;;;4116210;28;20046;-63
2022/09/11 07:12:14;;;;;;;2.35;1.67;;;30.60;99.90;;;;;;4158411;28;20196;-63
2022/09/11 07:14:46;;;;;;;2.03;1.70;;;30.30;99.90;;;;;;4143524;28;20136;-63
2022/09/11 07:17:10;;;;;;;3.10;1.60;;;30.10;99.90;;;;;;4141133;28;20120;-64
2022/09/11 07:19:18;;;;;;;2.72;1.70;;;30.20;99.90;;;;;;4157537;28;20160;-64
2022/09/11 07:21:24;;;;;;;1.60;1.50;;;30.30;99.90;;;;;;4157516;28;20065;-64
2022/09/11 07:23:35;;;;;;;2.15;1.48;;;30.50;99.90;;;;;;4109724;28;20051;-64
2022/09/11 07:25:44;;;;;;;3.35;1.52;;;30.50;99.90;;;;;;4157098;28;20099;-63
2022/09/11 07:27:50;;;;;;;1.38;1.27;;;30.70;99.90;;;;;;4158436;28;20073;-64
2022/09/11 07:29:56;;;;;;;3.67;1.58;;;30.80;99.90;;;;;;4109452;28;20098;-66
2022/09/11 07:32:03;;;;;;;2.60;1.60;;;30.80;99.90;;;;;;4157560;28;20057;-63
2022/09/11 07:34:11;;;;;;;2.58;1.50;;;30.90;99.90;;;;;;4141141;28;20057;-64
2022/09/11 07:36:26;;;;;;;3.53;1.67;;;31.00;99.90;;;;;;4157891;28;20073;-64
2022/09/11 07:38:32;;;;;;;;;;;31.10;99.90;;;;;;4157958;28;20061;-63
2022/09/11 07:40:38;;;;;;;2.50;1.70;;;31.20;99.90;;;;;;4141352;28;20048;-62
2022/09/11 07:42:50;;;;;;;2.92;1.55;;;31.10;99.90;;;;;;4137958;28;20054;-63
2022/09/11 07:44:57;;;;;;;2.00;1.70;;;31.00;99.90;;;;;;4174437;28;20049;-63
2022/09/11 07:47:17;;;;;;;1.83;1.50;;;31.00;99.90;;;;;;4156407;28;20043;-62
2022/09/11 07:49:27;;;;;;;3.60;1.67;;;31.10;99.90;;;;;;4161602;28;20046;-65
2022/09/11 07:51:35;;;;;;;2.05;1.60;;;31.20;99.90;;;;;;4161311;28;20061;-63
2022/09/11 07:53:43;;;;;;;5.97;1.88;;;31.10;99.90;;;;;;4143010;28;20049;-63
2022/09/11 07:55:49;;;;;;;1.77;1.40;;;30.80;99.90;;;;;;4145486;28;20148;-63
2022/09/11 07:57:54;;;;;;;2.60;1.60;;;30.60;99.90;;;;;;4144423;28;20149;-63
2022/09/11 07:59:59;;;;;;;2.95;1.60;;;30.60;99.90;;;;;;4145524;28;20054;-63
2022/09/11 08:02:11;;;;;;;2.30;1.70;;;30.70;99.90;;;;;;4145995;28;20069;-63
2022/09/11 08:04:18;;;;;;;2.40;1.40;;;30.70;99.90;;;;;;4160689;28;20065;-63
2022/09/11 08:06:25;;;;;;;2.92;1.45;;;30.70;99.90;;;;;;4176880;28;20065;-63
2022/09/11 08:08:36;;;;;;;2.38;1.60;;;30.90;99.90;;;;;;4159274;28;20370;-65
2022/09/11 08:10:44;;;;;;;2.67;1.67;;;31.00;99.90;;;;;;4143078;28;20044;-63
2022/09/11 08:12:48;;;;;;;3.50;1.70;;;31.10;99.90;;;;;;4159882;28;20080;-63
2022/09/11 08:14:53;;;;;;;3.17;1.65;;;31.20;99.90;;;;;;4176043;28;20079;-63
2022/09/11 08:16:58;;;;;;;1.58;1.38;;;31.20;99.90;;;;;;4142888;28;20064;-63
2022/09/11 08:19:05;;;;;;;2.42;1.35;;;31.30;99.90;;;;;;4143469;28;20108;-64
2022/09/11 08:21:11;;;;;;;2.05;1.77;;;31.40;99.90;;;;;;4108779;28;20058;-63
2022/09/11 08:23:16;;;;;;;2.75;1.60;;;31.40;99.90;;;;;;4158525;28;20051;-64
2022/09/11 08:25:21;;;;;;;2.58;1.67;;;31.30;99.90;;;;;;4143275;28;20049;-63
2022/09/11 08:27:28;;;;;;;2.95;1.48;;;31.30;99.90;;;;;;4159264;28;20800;-63
2022/09/11 08:29:34;;;;;;;3.30;1.98;;;31.20;99.90;;;;;;4143908;28;20069;-63
2022/09/11 08:31:40;;;;;;;7.18;1.70;;;31.20;99.90;;;;;;4176016;28;20049;-63
2022/09/11 08:33:46;;;;;;;2.95;1.60;;;31.10;99.90;;;;;;4159723;28;20045;-63
2022/09/11 08:35:52;;;;;;;2.15;1.77;;;31.10;99.90;;;;;;4144810;28;20103;-63
2022/09/11 08:37:57;;;;;;;2.97;1.75;;;31.00;99.90;;;;;;4144411;28;20528;-63
2022/09/11 08:40:04;;;;;;;1.92;1.67;;;30.90;99.90;;;;;;4133117;28;20049;-63
2022/09/11 08:42:14;;;;;;;1.98;1.80;;;30.90;99.90;;;;;;4144421;28;20068;-64
2022/09/11 08:44:27;;;;;;;3.10;2.00;;;30.90;99.90;;;;;;4144809;28;20058;-63
2022/09/11 08:46:59;;;;;;;3.53;2.05;;;30.90;99.90;;;;;;4143777;28;20060;-62
2022/09/11 08:49:11;;;;;;;2.70;1.52;;;30.90;99.90;;;;;;4143458;28;20759;-62
2022/09/11 08:51:18;;;;;;;2.78;1.80;;;31.00;99.90;;;;;;4142095;28;20133;-63
2022/09/11 08:53:28;;;;;;;3.40;1.95;;;30.90;99.90;;;;;;4142672;28;20029;-64
2022/09/11 08:55:39;;;;;;;6.72;2.15;;;30.80;99.90;;;;;;4141672;28;20120;-63
2022/09/11 08:58:17;;;;;;;1.92;1.70;;;30.70;99.90;;;;;;4158740;28;20041;-64
2022/09/11 09:00:43;;;;;;;3.92;1.85;;;30.80;99.90;;;;;;4164999;28;20118;-63
2022/09/11 09:03:25;;;;;;;6.18;2.17;;;30.80;99.90;;;;;;4176006;28;20053;-63
2022/09/11 09:06:30;;;;;;;2.58;2.22;;;30.90;99.90;;;;;;4142553;28;20381;-63
2022/09/11 09:08:59;;;;;;;2.45;1.90;;;30.90;99.90;;;;;;4176425;28;20045;-63
2022/09/11 09:11:36;;;;;;;2.08;1.88;;;30.90;99.90;;;;;;4144118;28;20058;-64
2022/09/11 09:14:24;;;;;;;3.15;2.03;;;30.90;99.90;;;;;;4177812;28;20535;-64
2022/09/11 09:16:54;;;;;;;2.40;2.03;;;30.90;99.90;;;;;;4161137;28;20057;-63
2022/09/11 09:19:15;;;;;;;1.88;1.60;;;30.80;99.90;;;;;;4161374;28;20061;-63
2022/09/11 09:21:30;;;;;;;2.75;1.75;;;30.70;99.90;;;;;;4145416;28;20057;-63
2022/09/11 09:23:53;;;;;;;2.88;1.80;;;30.60;99.90;;;;;;4177788;28;20045;-63
2022/09/11 09:25:58;;;;;;;3.33;1.85;;;30.60;99.90;;;;;;4145222;28;20049;-63
2022/09/11 09:28:24;;;;;;;2.03;1.58;;;30.60;99.90;;;;;;4177512;28;20114;-63
2022/09/11 09:31:04;;;;;;;2.50;1.77;;;30.60;99.90;;;;;;4139894;28;20047;-63
2022/09/11 09:33:49;;;;;;;3.83;1.95;;;30.60;99.90;;;;;;4143507;28;20052;-64
2022/09/11 09:36:41;;;;;;;2.92;2.10;;;30.70;99.90;;;;;;4126982;28;21016;-65
2022/09/11 09:38:48;;;;;;;4.57;1.83;;;30.70;99.90;;;;;;4126997;28;20042;-64
2022/09/11 09:41:30;;;;;;;4.65;1.95;;;30.70;99.90;;;;;;4127120;28;20470;-64
2022/09/11 09:44:17;;;;;;;2.78;1.83;;;30.60;99.90;;;;;;4148898;28;20038;-64
2022/09/11 09:46:43;;;;;;;4.22;2.53;;;30.60;99.90;;;;;;4132105;28;20050;-63
2022/09/11 09:48:54;;;;;;;3.85;2.72;;;30.50;99.90;;;;;;4101960;28;20046;-61
2022/09/11 09:51:02;;;;;;;6.18;3.20;;;30.60;99.90;;;;;;4147839;28;20586;-61
2022/09/11 09:53:19;;;;;;;3.33;2.22;;;30.60;99.90;;;;;;4150796;28;20037;-61
2022/09/11 09:55:25;;;;;;;3.00;2.10;;;30.70;99.90;;;;;;4121331;28;20046;-61
2022/09/11 09:57:38;;;;;;;3.25;2.30;;;30.70;99.90;;;;;;4144852;28;20066;-64
2022/09/11 09:59:51;;;;;;;2.70;2.10;;;30.70;99.90;;;;;;4144823;28;20115;-62
2022/09/11 10:01:57;;;;;;;3.38;2.00;;;30.70;99.90;;;;;;4142284;28;20451;-62
2022/09/11 10:04:17;;;;;;;3.08;2.05;;;30.70;99.90;;;;;;4141560;28;20042;-62
2022/09/11 10:06:27;;;;;;;3.53;1.80;;;30.70;99.90;;;;;;4172511;28;20128;-62
2022/09/11 10:08:35;;;;;;;3.47;1.80;;;30.70;99.90;;;;;;4125578;28;20046;-63
2022/09/11 10:10:40;;;;;;;2.25;1.70;;;30.60;99.90;;;;;;4142958;28;20073;-62
2022/09/11 10:12:46;;;;;;;2.20;1.77;;;30.50;99.90;;;;;;4143176;28;20042;-62
2022/09/11 10:14:57;;;;;;;3.08;2.33;;;30.50;99.90;;;;;;4109138;28;20411;-61
2022/09/11 10:17:01;;;;;;;2.35;1.88;;;30.40;99.90;;;;;;4142037;28;20076;-62
2022/09/11 10:19:09;;;;;;;2.30;1.75;;;30.40;99.90;;;;;;4159037;28;20053;-62
2022/09/11 10:21:32;;;;;;;3.22;2.08;;;30.40;99.90;;;;;;4140971;28;20489;-63
2022/09/11 10:24:18;;;;;;;2.70;2.08;;;30.40;99.90;;;;;;4141097;28;20057;-65
2022/09/11 10:26:36;;;;;;;3.22;1.73;;;30.30;99.90;;;;;;4156216;28;20061;-62
2022/09/11 10:28:41;;;;;;;4.53;3.08;;;30.20;99.90;;;;;;4141201;28;20046;-62
2022/09/11 10:31:03;;;;;;;2.95;2.25;;;30.20;99.90;;;;;;4143797;28;20109;-63
2022/09/11 10:33:27;;;;;;;3.17;2.25;;;30.20;99.90;;;;;;4108870;28;20101;-62
2022/09/11 10:35:32;;;;;;;3.42;1.80;;;30.20;99.90;;;;;;4142757;28;20033;-61
2022/09/11 10:37:38;;;;;;;3.53;2.10;;;30.20;99.90;;;;;;4155614;28;20076;-62
2022/09/11 10:39:47;;;;;;;2.67;2.28;;;30.10;99.90;;;;;;4158181;28;20376;-63
2022/09/11 10:42:29;;;;;;;3.10;2.50;;;30.10;99.90;;;;;;4125129;28;20057;-63
2022/09/11 10:44:40;;;;;;;2.90;2.10;;;30.00;99.90;;;;;;4137288;28;20058;-64
2022/09/11 10:47:01;;;;;;;3.60;2.03;;;29.90;99.90;;;;;;4123717;28;20050;-63
2022/09/11 10:49:16;;;;;;;5.32;2.05;;;30.00;99.90;;;;;;4123584;28;20046;-65
2022/09/11 10:51:28;;;;;;;3.85;1.83;;;30.00;99.90;;;;;;4124617;28;20085;-64
2022/09/11 10:53:46;;;;;;;2.28;1.92;;;30.00;99.90;;;;;;4109068;28;20100;-63
2022/09/11 10:56:02;;;;;;;4.18;2.55;;;30.10;99.90;;;;;;4123511;28;20038;-64
2022/09/11 10:58:16;;;;;;;4.97;2.47;;;30.10;99.90;;;;;;4121423;28;20078;-63
2022/09/11 11:00:29;;;;;;;3.05;2.10;;;30.00;99.90;;;;;;4107953;28;20938;-63
2022/09/11 11:02:41;;;;;;;4.05;2.40;;;29.90;99.90;;;;;;4123069;28;20168;-62
2022/09/11 11:04:49;;;;;;;12.45;2.95;;;29.90;99.90;;;;;;4125308;28;20481;-65
2022/09/11 11:07:10;;;;;;;26.08;3.53;;;29.90;99.90;;;;;;4133088;28;20060;-64
2022/09/11 11:09:39;;;;;;;7.68;2.28;;;29.70;99.90;;;;;;4143511;28;20529;-64
2022/09/11 11:12:24;;;;;;;5.55;2.15;;;29.60;99.90;;;;;;4174433;28;20735;-64
2022/09/11 11:14:54;;;;;;;3.67;2.40;;;29.60;99.90;;;;;;4143913;28;20070;-65
2022/09/11 11:17:30;;;;;;;7.47;4.38;;;29.70;99.90;;;;;;4142766;28;20417;-66
2022/09/11 11:20:09;;;;;;;8.32;5.07;;;29.70;99.90;;;;;;4124619;28;20163;-65
2022/09/11 11:22:45;;;;;;;7.20;4.60;;;29.80;99.90;;;;;;4175021;28;20072;-66
2022/09/11 11:25:21;;;;;;;10.23;5.22;;;29.80;99.90;;;;;;4147125;28;20092;-66
2022/09/11 11:27:50;;;;;;;13.45;8.32;;;29.70;99.90;;;;;;4178346;28;20118;-66
2022/09/11 11:30:18;;;;;;;22.95;17.92;;;29.70;99.90;;;;;;4143076;28;20049;-66
2022/09/11 11:33:05;;;;;;;18.67;14.65;;;29.70;99.90;;;;;;4177049;28;20045;-65
2022/09/11 11:35:55;;;;;;;19.83;12.48;;;29.70;99.90;;;;;;4144273;28;20481;-65
2022/09/11 11:38:23;;;;;;;17.58;13.02;;;29.60;99.90;;;;;;4176724;28;20060;-64
2022/09/11 11:40:41;;;;;;;12.80;7.20;;;29.60;99.90;;;;;;4145206;28;20057;-65
2022/09/11 11:42:59;;;;;;;10.05;7.30;;;29.60;99.90;;;;;;4145866;28;20835;-64
2022/09/11 11:45:24;;;;;;;14.63;6.97;;;29.60;99.90;;;;;;4145836;28;20642;-67